Baugh, Oklahoma
Current Conditions -  °F | °C
As of 7:55 AM on Monday 24 Nov 2014 (Local Time) from KOWP Reporting Station
Clear Clear  
Wind Chill:   Ceiling: Unl
Heat Index:   Visibility: 10mi
Dew Point: -2°   Wind: 5mph
Humidity: 63%   Direction: 270°W
Pressure: 29.88"   Gusts: NA
Location:  36.248°N, 96.4789°W
Report Text: KOWP 241355Z AUTO 27004KT 10SM CLR 05/M02 A2988 RMK AO2 T00451021
Loading
Personal Weather Stations






























Interactive Weather Map New forecast layout! Learn more

10-Day Weather Forecast

Advertisements
Track Severe Weather on mobile